Detalii statie AGRIND TASNAD [0000197A]

Toti senzorii

Date Temperatura solului [C]Precipitatii [mm]Voltaj baterie [mV]Leaf Wetness [Min]HC Air temperature [C]HC Relative humidity [%]Punctul de roua [C]
medieminmaxsumaultimatimpmedieminmaxmediemediemin
2018-08-12 11:00:00 23.4 23.4 23.5 0 7274 27.54 27.26 27.83 55.41 17.6 17.6
2018-08-12 11:10:00 23.6 23.6 23.6 0 7274 27.95 27.77 28.14 55.26 17.8 17.8
2018-08-12 11:20:00 23.7 23.7 23.7 0 7264 28.3 28.17 28.44 54.8 18 17.9
2018-08-12 11:30:00 23.7 23.6 23.8 0 7274 28.15 28.07 28.23 54.64 17.9 17.8
2018-08-12 11:40:00 23.7 23.7 23.8 0 7274 29.18 28.58 29.79 49.7 17.3 17.2
2018-08-12 11:50:00 23.9 23.8 24 0 7274 29.31 28.69 29.93 50.37 17.7 17.5
2018-08-12 12:00:00 23.9 23.9 23.9 0 7274 29.34 29.04 29.64 49.27 17.4 17.1
2018-08-12 12:10:00 23.9 23.9 24 0 7274 29.57 29.4 29.74 46.33 16.5 16.5
2018-08-12 12:20:00 24 24 24.1 0 7274 29.61 29.53 29.69 47.52 17 17
2018-08-12 12:30:00 24 24 24 0 7216 29.88 29.46 30.31 46.44 16.9 16.9
2018-08-12 12:40:00 24.2 24.2 24.2 0 7274 28.68 28.23 29.13 50.44 17.2 16.8
2018-08-12 12:50:00 24.2 24.1 24.3 0 7274 30.24 30.15 30.34 46.29 17.3 17.2
2018-08-12 13:00:00 24.3 24.3 24.4 0 7264 30.59 30.59 30.6 44.27 16.9 16.9
2018-08-12 13:10:00 24.4 24.3 24.5 0 7274 30.45 30.4 30.5 44.88 17 16.9
2018-08-12 13:20:00 24.5 24.5 24.5 0 7274 30.77 30.73 30.81 43.3 16.5 16.3
2018-08-12 13:30:00 24.4 24.4 24.5 0 7264 30.55 30.17 30.94 43.19 16.5 16.5
2018-08-12 13:40:00 24.6 24.5 24.7 0 7274 30.05 29.63 30.48 43.84 16.2 16
2018-08-12 13:50:00 24.7 24.7 24.7 0 7274 31.17 31.1 31.24 41.18 16.3 16.3
2018-08-12 14:00:00 24.7 24.7 24.8 0 7264 31.1 30.76 31.44 41.84 16.4 16.3
2018-08-12 14:10:00 24.9 24.8 25 0 7264 31 30.71 31.29 41.18 15.9 15.5
2018-08-12 14:20:00 25 25 25.1 0 7264 31 30.62 31.39 41.17 16.1 15.8
2018-08-12 14:30:00 25.1 25.1 25.1 0 7274 31.21 30.86 31.56 40.34 15.7 15.6
2018-08-12 14:40:00 25.2 25.2 25.3 0 7274 31.03 30.74 31.33 40.43 15.8 15.7
2018-08-12 14:50:00 25.2 25.2 25.3 0 7274 31.55 31.49 31.61 40.04 16.1 16
2018-08-12 15:00:00 25.5 25.5 25.6 0 7216 30.94 30.59 31.29 40.16 15.7 15.6
2018-08-12 15:10:00 25.5 25.4 25.6 0 7274 31.34 31.16 31.53 40.28 16.1 15.9
2018-08-12 15:20:00 25.6 25.6 25.6 0 7274 30.59 30.43 30.75 39.11 15 14.9
2018-08-12 15:30:00 25.8 25.8 25.9 0 7274 31.43 31.11 31.75 37.47 14.9 14.7
2018-08-12 15:40:00 25.9 25.9 25.9 0 7274 31.53 31.01 32.06 38.56 15.4 15.4
2018-08-12 15:50:00 26 26 26 0 7274 31.32 31.22 31.42 37.06 14.6 14.5
2018-08-12 16:00:00 25.9 25.8 26 0 7274 31.6 31.34 31.86 34.37 13.8 13.6
2018-08-12 16:10:00 26.1 26.1 26.1 0 7274 31.74 31.71 31.77 33.62 13.4 13
2018-08-12 16:20:00 26.2 26.1 26.3 0 7274 31.24 31.2 31.29 32.92 12.7 12.5
2018-08-12 16:30:00 26.3 26.3 26.3 0 7274 31.45 31.41 31.5 33.1 13 12.7
2018-08-12 16:40:00 26.3 26.3 26.4 0 7274 31.19 31.19 31.2 34.51 13.4 12.9
2018-08-12 16:50:00 26.5 26.4 26.6 0 7274 31.35 31.13 31.58 34.93 13.8 13.4
2018-08-12 17:00:00 26.5 26.4 26.6 0 7274 31.44 31.26 31.62 35.56 14.1 13.9
2018-08-12 17:10:00 26.6 26.6 26.6 0 7274 31.14 30.92 31.37 34.65 13.4 12.8
2018-08-12 17:20:00 26.4 26.4 26.5 0 7264 30.99 30.9 31.09 34.76 13.2 13.2
2018-08-12 17:30:00 26.7 26.7 26.7 0 7274 30.79 30.69 30.9 35.49 13.5 13.4
2018-08-12 17:40:00 26.6 26.5 26.7 0 7274 30.89 30.73 31.06 36.3 13.8 13.7
2018-08-12 17:50:00 26.7 26.7 26.7 0 7274 30.76 30.76 30.77 37.16 14.3 14.3
2018-08-12 18:00:00 26.8 26.8 26.8 0 7274 30.63 30.46 30.81 36.11 13.8 13.7
2018-08-12 18:10:00 26.7 26.7 26.8 0 7274 30.31 30.3 30.32 35.98 13.1 13.1
2018-08-12 18:20:00 26.8 26.8 26.8 0 7264 30.2 30.1 30.3 36.3 13.5 13.4
2018-08-12 18:30:00 26.8 26.8 26.8 0 7274 30.07 30.03 30.12 35.78 13.1 13
2018-08-12 18:40:00 26.7 26.7 26.8 0 7254 29.94 29.94 29.95 35.04 12.5 12.3
2018-08-12 18:50:00 26.6 26.5 26.8 0 7264 29.63 29.55 29.72 35.63 12.5 12.4